Time;durP1;ratioP1;P1;durP2;ratioP2;P2;SDS_P1;SDS_P2;PMS_P1;PMS_P2;Temp;Humidity;BMP_temperature;BMP_pressure;BME280_temperature;BME280_humidity;BME280_pressure;Samples;Min_cycle;Max_cycle;Signal;HPM_P1;HPM_P2
2023/03/31 00:04:58;;;;;;;7.18;1.70;;;;;;;10.89;62.31;99076.00;10338833;28;20165;-59
2023/03/31 00:10:00;;;;;;;8.02;1.70;;;;;;;10.92;62.95;99058.28;10342373;28;20132;-59
2023/03/31 00:15:18;;;;;;;5.25;1.60;;;;;;;10.86;63.21;99063.97;10355104;28;20429;-59
2023/03/31 00:20:20;;;;;;;8.38;1.95;;;;;;;10.72;63.78;99045.84;10339250;28;20046;-59
2023/03/31 00:25:22;;;;;;;9.23;2.00;;;;;;;10.67;64.23;99045.34;10341031;28;20410;-59
2023/03/31 00:30:24;;;;;;;9.48;2.00;;;;;;;10.63;64.64;99025.59;10341738;28;20046;-59
2023/03/31 00:35:25;;;;;;;7.30;1.70;;;;;;;10.59;65.18;99024.16;10342233;28;20054;-59
2023/03/31 00:40:27;;;;;;;10.50;1.85;;;;;;;10.69;64.90;99019.06;10341100;28;20525;-59
2023/03/31 00:45:30;;;;;;;11.98;2.35;;;;;;;10.68;64.99;99001.72;10365139;28;20046;-59
2023/03/31 00:50:39;;;;;;;10.75;2.00;;;;;;;10.67;65.26;98985.19;10357618;28;20191;-59
2023/03/31 00:55:49;;;;;;;7.35;1.88;;;;;;;10.62;65.80;98976.03;10344533;28;20133;-59
2023/03/31 01:00:51;;;;;;;7.20;1.88;;;;;;;10.58;65.52;98961.53;10342608;28;20033;-59
2023/03/31 01:05:58;;;;;;;9.18;2.00;;;;;;;10.50;65.73;98954.28;10348022;28;20327;-59
2023/03/31 01:11:05;;;;;;;9.27;1.95;;;;;;;10.51;66.09;98953.31;10345605;28;20117;-60
2023/03/31 01:16:07;;;;;;;7.72;1.65;;;;;;;10.41;65.98;98944.50;10344588;28;20394;-60
2023/03/31 01:21:29;;;;;;;8.55;1.67;;;;;;;10.35;66.56;98937.09;10353390;28;20038;-59
2023/03/31 01:27:06;;;;;;;7.00;1.60;;;;;;;10.38;66.64;98934.25;10339476;28;20050;-59
2023/03/31 01:32:08;;;;;;;6.68;1.90;;;;;;;10.41;66.33;98924.44;10337468;28;20435;-59
2023/03/31 01:37:28;;;;;;;6.85;1.77;;;;;;;10.43;66.46;98911.22;10336699;28;20058;-58
2023/03/31 01:42:48;;;;;;;10.18;2.08;;;;;;;10.44;66.66;98900.66;10338736;28;20052;-58
2023/03/31 01:48:05;;;;;;;11.02;2.10;;;;;;;10.48;66.58;98890.81;10339087;28;20329;-59
2023/03/31 01:53:14;;;;;;;6.80;1.88;;;;;;;10.52;66.26;98872.16;10336451;28;20054;-59
2023/03/31 01:58:20;;;;;;;11.55;2.40;;;;;;;10.57;66.04;98858.72;10339019;28;20049;-59
2023/03/31 02:03:33;;;;;;;10.77;2.13;;;;;;;10.50;66.49;98849.72;10342614;28;20083;-58
2023/03/31 02:08:44;;;;;;;11.82;2.28;;;;;;;10.45;66.17;98846.59;10359665;28;20038;-59
2023/03/31 02:13:51;;;;;;;8.45;2.13;;;;;;;10.48;66.07;98833.31;10343972;28;20042;-59
2023/03/31 02:19:01;;;;;;;14.35;2.50;;;;;;;10.43;66.04;98824.97;10366954;28;20050;-59
2023/03/31 02:24:09;;;;;;;8.25;2.25;;;;;;;10.44;66.07;98821.41;10355264;28;20069;-59
2023/03/31 02:29:11;;;;;;;10.60;2.30;;;;;;;10.52;65.66;98813.00;10345844;28;20521;-59
2023/03/31 02:34:13;;;;;;;14.52;2.47;;;;;;;10.58;65.80;98800.28;10339251;28;20045;-58
2023/03/31 02:39:24;;;;;;;10.40;2.20;;;;;;;10.54;65.64;98790.16;10362722;28;20054;-59
2023/03/31 02:44:27;;;;;;;13.07;2.30;;;;;;;10.55;65.85;98771.75;10340480;28;20128;-59
2023/03/31 02:49:29;;;;;;;14.95;3.08;;;;;;;10.66;65.56;98761.28;10343508;28;20054;-58
2023/03/31 02:54:39;;;;;;;15.15;3.08;;;;;;;10.69;65.86;98729.66;10379269;28;20045;-58
2023/03/31 03:00:16;;;;;;;9.48;2.85;;;;;;;10.77;65.43;98706.34;10349531;28;20589;-59
2023/03/31 03:05:48;;;;;;;10.80;2.83;;;;;;;10.79;65.04;98680.06;10362709;28;20054;-59
2023/03/31 03:11:56;;;;;;;12.30;2.80;;;;;;;10.66;66.02;98677.63;10336533;28;20119;-59
2023/03/31 03:17:21;;;;;;;11.88;2.45;;;;;;;10.71;66.02;98678.06;10339640;28;20332;-59
2023/03/31 03:22:23;;;;;;;12.95;2.45;;;;;;;10.63;65.82;98661.31;10335291;28;20406;-59
2023/03/31 03:27:25;;;;;;;14.75;2.45;;;;;;;10.56;66.16;98645.31;10337108;28;20554;-59
2023/03/31 03:32:26;;;;;;;10.52;2.92;;;;;;;10.62;66.04;98654.44;10336079;28;20048;-59
2023/03/31 03:37:29;;;;;;;14.65;3.33;;;;;;;10.54;66.11;98662.91;10334524;28;20413;-59
2023/03/31 03:42:32;;;;;;;18.10;5.30;;;;;;;10.49;66.31;98620.63;10336492;28;20080;-59
2023/03/31 03:47:35;;;;;;;12.82;2.72;;;;;;;10.41;66.30;98610.78;10339092;28;20042;-59
2023/03/31 03:52:36;;;;;;;13.48;2.60;;;;;;;10.34;66.53;98613.97;10338542;28;20426;-59
2023/03/31 03:57:38;;;;;;;10.13;2.35;;;;;;;10.32;66.61;98587.97;10338014;28;20400;-59
2023/03/31 04:02:40;;;;;;;11.85;2.53;;;;;;;10.22;66.40;98597.50;10334002;28;20111;-59
2023/03/31 04:07:42;;;;;;;9.55;2.78;;;;;;;10.25;66.14;98597.28;10335156;28;20041;-59
2023/03/31 04:12:44;;;;;;;10.52;2.60;;;;;;;10.28;65.99;98591.78;10332866;28;20406;-59
2023/03/31 04:17:49;;;;;;;10.48;2.80;;;;;;;10.31;65.79;98590.72;10340950;28;20145;-59
2023/03/31 04:22:51;;;;;;;13.07;3.75;;;;;;;10.30;65.78;98579.44;10344223;28;20113;-59
2023/03/31 04:27:56;;;;;;;91.38;51.47;;;;;;;10.34;65.86;98569.56;10342421;28;20048;-59
2023/03/31 04:33:01;;;;;;;60.63;33.97;;;;;;;10.46;65.38;98542.47;10344848;28;20054;-59
2023/03/31 04:38:03;;;;;;;26.50;13.57;;;;;;;10.58;65.01;98546.69;10339613;28;20060;-58
2023/03/31 04:43:05;;;;;;;12.20;2.90;;;;;;;10.66;64.91;98541.66;10342123;28;20427;-59
2023/03/31 04:48:07;;;;;;;18.95;3.38;;;;;;;10.65;64.96;98534.75;10344174;28;20172;-59
2023/03/31 04:53:09;;;;;;;13.35;2.63;;;;;;;10.66;64.90;98523.38;10350698;28;20497;-59
2023/03/31 04:58:11;;;;;;;12.15;2.67;;;;;;;10.61;64.40;98511.59;10348186;28;20129;-59
2023/03/31 05:03:12;;;;;;;14.73;2.50;;;;;;;10.52;64.86;98504.53;10347943;28;20048;-59
2023/03/31 05:08:15;;;;;;;10.65;2.42;;;;;;;10.47;65.19;98497.06;10341667;28;20045;-58
2023/03/31 05:13:16;;;;;;;13.48;3.15;;;;;;;10.51;64.94;98490.63;10336408;28;20068;-58
2023/03/31 05:18:18;;;;;;;8.40;2.50;;;;;;;10.50;64.74;98484.56;10367307;28;20049;-59
2023/03/31 05:23:20;;;;;;;12.95;2.80;;;;;;;10.51;65.37;98498.47;10339774;28;20371;-58
2023/03/31 05:28:22;;;;;;;14.52;5.53;;;;;;;10.44;65.62;98500.75;10340708;28;20049;-59
2023/03/31 05:33:24;;;;;;;31.95;16.15;;;;;;;10.43;66.05;98498.25;10341398;28;20054;-59
2023/03/31 05:38:28;;;;;;;16.67;7.00;;;;;;;10.39;66.10;98489.00;10339835;28;20064;-59
2023/03/31 05:43:29;;;;;;;12.00;3.67;;;;;;;10.38;65.94;98484.72;10355702;28;20676;-59
2023/03/31 05:48:31;;;;;;;10.00;3.45;;;;;;;10.21;66.29;98469.63;10341431;28;20046;-59
2023/03/31 05:53:33;;;;;;;10.10;3.03;;;;;;;10.20;66.34;98455.72;10338928;28;20360;-58
2023/03/31 05:58:37;;;;;;;17.13;3.95;;;;;;;9.99;66.81;98427.91;10340719;28;20041;-59
2023/03/31 06:03:40;;;;;;;9.40;3.10;;;;;;;9.73;67.66;98405.69;10338541;28;20038;-59
2023/03/31 06:08:44;;;;;;;11.52;3.10;;;;;;;9.73;67.70;98422.16;10345387;28;20450;-59
2023/03/31 06:13:46;;;;;;;14.98;3.90;;;;;;;9.90;67.64;98412.97;10344108;28;20671;-59
2023/03/31 06:18:50;;;;;;;12.82;3.90;;;;;;;10.08;67.47;98407.09;10333555;28;20050;-60
2023/03/31 06:23:54;;;;;;;16.10;4.07;;;;;;;10.17;67.30;98414.19;10341436;28;20065;-59
2023/03/31 06:28:56;;;;;;;13.15;4.38;;;;;;;10.20;67.38;98411.31;10333113;28;20045;-59
2023/03/31 06:33:58;;;;;;;62.10;5.75;;;;;;;10.25;67.24;98392.63;10339476;28;20121;-59
2023/03/31 06:39:00;;;;;;;15.27;4.43;;;;;;;10.03;67.56;98366.63;10338403;28;20084;-59
2023/03/31 06:44:02;;;;;;;11.57;4.18;;;;;;;9.84;67.93;98342.97;10340313;28;20060;-59
2023/03/31 06:49:04;;;;;;;9.35;2.20;;;;;;;9.70;68.28;98317.16;10338560;28;20549;-59
2023/03/31 06:54:06;;;;;;;7.28;2.20;;;;;;;9.70;68.23;98286.69;10338743;28;20131;-59
2023/03/31 06:59:07;;;;;;;5.20;1.98;;;;;;;9.67;68.31;98292.13;10354331;28;20041;-59
2023/03/31 07:04:09;;;;;;;9.77;2.33;;;;;;;9.78;68.14;98310.38;10339236;28;20054;-59
2023/03/31 07:09:11;;;;;;;4.22;1.70;;;;;;;10.01;67.41;98306.66;10345687;28;20044;-59
2023/03/31 07:14:13;;;;;;;5.70;1.70;;;;;;;10.19;66.45;98293.88;10341267;28;20523;-59
2023/03/31 07:19:16;;;;;;;5.53;2.00;;;;;;;10.31;66.62;98296.28;10343968;28;20057;-59
2023/03/31 07:24:18;;;;;;;5.30;1.80;;;;;;;10.30;66.75;98283.34;10331291;28;20180;-59
2023/03/31 07:29:20;;;;;;;6.35;2.60;;;;;;;10.20;66.97;98280.69;10337623;28;20034;-59
2023/03/31 07:34:22;;;;;;;8.85;2.13;;;;;;;10.35;67.21;98278.56;10332072;28;20524;-59
2023/03/31 07:39:23;;;;;;;6.00;2.10;;;;;;;10.94;66.44;98265.56;10332179;28;20048;-59
2023/03/31 07:44:25;;;;;;;8.65;2.22;;;;;;;11.07;65.97;98261.75;10330264;28;20038;-59
2023/03/31 07:49:27;;;;;;;7.82;2.17;;;;;;;11.11;65.46;98252.69;10332243;28;20042;-59
2023/03/31 07:54:29;;;;;;;6.70;2.30;;;;;;;11.27;64.98;98239.88;10339654;28;20279;-59
2023/03/31 07:59:31;;;;;;;5.30;2.13;;;;;;;12.04;64.39;98247.69;10339447;28;20055;-59
2023/03/31 08:04:33;;;;;;;5.63;2.25;;;;;;;12.57;63.03;98251.41;10336935;28;20513;-59
2023/03/31 08:09:36;;;;;;;6.38;2.50;;;;;;;12.79;62.55;98245.78;10340044;28;20050;-59
2023/03/31 08:14:38;;;;;;;5.53;2.28;;;;;;;13.05;62.32;98245.91;10339650;28;20052;-59
2023/03/31 08:19:42;;;;;;;6.38;2.05;;;;;;;13.41;61.51;98236.28;10352060;28;20454;-59
2023/03/31 08:24:44;;;;;;;7.07;1.80;;;;;;;13.17;61.19;98243.91;10339085;28;20040;-59
2023/03/31 08:29:47;;;;;;;6.68;1.92;;;;;;;13.03;61.55;98236.56;10336310;28;20108;-59
2023/03/31 08:34:50;;;;;;;5.53;1.70;;;;;;;13.07;60.98;98233.47;10342632;28;20409;-60
2023/03/31 08:39:52;;;;;;;6.82;1.90;;;;;;;13.17;61.13;98236.84;10335919;28;20046;-59
2023/03/31 08:45:02;;;;;;;5.22;2.20;;;;;;;13.23;60.99;98225.75;10337171;28;20049;-59
2023/03/31 08:50:16;;;;;;;5.63;1.80;;;;;;;13.18;60.53;98214.06;10334546;28;20042;-59
2023/03/31 08:55:31;;;;;;;5.63;1.95;;;;;;;13.30;60.45;98211.06;10341858;28;20480;-59
2023/03/31 09:00:45;;;;;;;7.50;2.00;;;;;;;12.95;60.72;98204.00;10333563;28;20034;-59
2023/03/31 09:05:55;;;;;;;7.28;2.13;;;;;;;12.98;60.94;98197.63;10340574;28;20054;-59
2023/03/31 09:11:07;;;;;;;8.93;2.42;;;;;;;13.23;60.31;98194.25;10335529;28;20391;-59
2023/03/31 09:16:25;;;;;;;8.60;2.28;;;;;;;12.89;60.70;98180.97;10355912;28;20150;-59
2023/03/31 09:21:42;;;;;;;9.90;2.30;;;;;;;12.66;60.95;98181.53;10338786;28;20116;-59
2023/03/31 09:26:52;;;;;;;11.30;2.80;;;;;;;12.44;62.06;98189.78;10339754;28;20077;-59
2023/03/31 09:32:29;;;;;;;9.63;2.42;;;;;;;12.15;63.15;98180.22;10337845;28;20231;-59
2023/03/31 09:37:32;;;;;;;9.13;2.40;;;;;;;12.03;63.49;98180.53;10340768;28;20514;-59
2023/03/31 09:42:37;;;;;;;12.40;2.58;;;;;;;11.87;63.89;98188.16;10334604;28;20712;-59
2023/03/31 09:47:42;;;;;;;11.93;2.70;;;;;;;11.47;63.97;98179.69;10338786;28;20724;-59
2023/03/31 09:52:54;;;;;;;11.45;3.10;;;;;;;11.57;64.10;98170.88;10333712;28;20092;-59
2023/03/31 09:57:59;;;;;;;7.65;2.55;;;;;;;11.46;63.20;98180.69;10334013;28;20057;-59
2023/03/31 10:03:06;;;;;;;8.98;1.98;;;;;;;10.69;63.01;98193.66;10332780;28;20046;-59
2023/03/31 10:08:42;;;;;;;6.95;1.63;;;;;;;10.01;64.18;98170.06;10333073;28;20046;-59
2023/03/31 10:14:02;;;;;;;9.50;1.80;;;;;;;9.68;64.32;98155.47;10348061;28;20042;-59
2023/03/31 10:19:22;;;;;;;9.80;2.13;;;;;;;9.84;65.02;98149.75;10353521;28;20516;-59
2023/03/31 10:24:28;;;;;;;6.70;2.03;;;;;;;10.19;64.67;98147.59;10332169;28;20437;-60
2023/03/31 10:29:33;;;;;;;9.23;2.50;;;;;;;10.52;64.42;98128.97;10340605;28;20505;-59
2023/03/31 10:34:40;;;;;;;9.98;2.20;;;;;;;11.47;63.88;98115.09;10337497;28;20888;-59
2023/03/31 10:39:46;;;;;;;9.52;2.35;;;;;;;11.91;62.75;98122.25;10342732;28;20128;-60
2023/03/31 10:44:49;;;;;;;15.20;2.65;;;;;;;11.62;63.47;98131.19;10337006;28;20049;-59
2023/03/31 10:49:56;;;;;;;12.20;2.53;;;;;;;10.96;64.36;98151.16;10331649;28;20112;-60
2023/03/31 10:55:00;;;;;;;10.70;1.95;;;;;;;11.23;65.06;98107.66;10335458;28;20405;-59
2023/03/31 11:00:17;;;;;;;7.63;2.05;;;;;;;12.08;63.54;98107.56;10331343;28;20061;-60
2023/03/31 11:05:34;;;;;;;5.57;1.67;;;;;;;13.08;61.99;98109.16;10342184;28;20594;-60
2023/03/31 11:10:57;;;;;;;10.65;2.55;;;;;;;12.90;61.47;98111.75;10334261;28;20141;-59
2023/03/31 11:16:30;;;;;;;14.70;3.00;;;;;;;12.87;61.27;98114.69;10338280;28;20389;-60
2023/03/31 11:21:52;;;;;;;12.77;3.20;;;;;;;12.60;61.99;98106.88;10336565;28;20054;-60
2023/03/31 11:27:16;;;;;;;12.18;3.17;;;;;;;12.52;61.84;98119.91;10345885;28;20042;-60
2023/03/31 11:32:40;;;;;;;9.43;2.13;;;;;;;11.42;61.79;98138.22;10342339;28;20996;-60
2023/03/31 11:38:06;;;;;;;11.75;2.80;;;;;;;10.81;64.26;98140.28;10341793;28;20164;-59
2023/03/31 11:43:09;;;;;;;11.77;2.10;;;;;;;10.71;64.86;98115.91;10341026;28;20815;-60
2023/03/31 11:48:31;;;;;;;7.45;2.08;;;;;;;10.76;64.68;98090.19;10349908;28;20049;-59
2023/03/31 11:53:37;;;;;;;6.65;1.98;;;;;;;10.99;63.94;98086.31;10348466;28;20053;-60
2023/03/31 11:59:00;;;;;;;8.82;2.10;;;;;;;11.84;62.93;98092.38;10350943;28;20543;-59
2023/03/31 12:04:32;;;;;;;8.43;1.98;;;;;;;12.30;60.78;98083.63;10341132;28;20042;-60
2023/03/31 12:09:43;;;;;;;8.38;2.00;;;;;;;12.54;60.62;98083.03;10359049;28;20100;-59
2023/03/31 12:14:52;;;;;;;10.25;1.98;;;;;;;12.38;61.33;98104.69;10341022;28;20050;-59
2023/03/31 12:19:58;;;;;;;12.07;2.30;;;;;;;12.04;62.78;98074.78;10345746;28;20046;-60
2023/03/31 12:25:00;;;;;;;10.20;2.58;;;;;;;12.32;62.44;98072.97;10349241;28;20046;-59
2023/03/31 12:30:20;;;;;;;10.23;2.50;;;;;;;12.76;62.26;98072.13;10348375;28;20185;-60
2023/03/31 12:35:28;;;;;;;16.05;2.85;;;;;;;12.61;62.42;98078.88;10346391;28;20050;-60
2023/03/31 12:40:57;;;;;;;12.45;2.42;;;;;;;12.71;61.63;98051.59;10335948;28;20124;-60
2023/03/31 12:46:16;;;;;;;12.90;2.70;;;;;;;13.13;61.90;98050.97;10342847;28;20147;-60
2023/03/31 12:51:29;;;;;;;10.95;2.70;;;;;;;13.22;61.35;98042.16;10337280;28;20057;-60
2023/03/31 12:56:58;;;;;;;11.98;2.38;;;;;;;13.13;60.70;98027.34;10342449;28;20050;-60
2023/03/31 13:02:15;;;;;;;13.80;2.80;;;;;;;13.39;60.92;98028.97;10352516;28;20121;-60
2023/03/31 13:07:26;;;;;;;10.02;2.42;;;;;;;13.53;60.69;98025.81;10333240;28;20057;-59
2023/03/31 13:12:31;;;;;;;10.65;2.20;;;;;;;13.65;61.10;98018.47;10263293;28;21299;-60
2023/03/31 13:17:37;;;;;;;12.10;2.72;;;;;;;13.67;60.74;98008.63;10260176;28;20057;-59
2023/03/31 13:22:44;;;;;;;8.23;2.28;;;;;;;14.05;60.48;97996.78;10259775;28;20616;-60
2023/03/31 13:27:52;;;;;;;12.63;2.30;;;;;;;14.43;59.50;98001.50;10260130;28;20035;-59
2023/03/31 13:33:07;;;;;;;10.48;2.55;;;;;;;14.28;59.29;98016.25;10260507;28;20295;-60
2023/03/31 13:38:18;;;;;;;10.75;2.47;;;;;;;14.05;58.53;98002.03;10261705;28;20065;-60
2023/03/31 13:43:29;;;;;;;;;;;;;;;13.61;59.87;98011.91;10262578;28;20442;-59
2023/03/31 13:48:54;;;;;;;6.72;1.92;;;;;;;14.43;58.75;97991.75;10266154;28;20086;-60
2023/03/31 13:54:30;;;;;;;8.05;2.17;;;;;;;14.58;57.24;97984.09;10265041;28;20138;-59
2023/03/31 14:00:11;;;;;;;8.25;2.22;;;;;;;14.36;57.70;97974.19;10263555;28;20470;-60
2023/03/31 14:05:22;;;;;;;8.57;2.03;;;;;;;13.76;56.60;97965.66;10264531;28;20042;-60
2023/03/31 14:10:26;;;;;;;7.65;2.00;;;;;;;13.42;57.54;97970.06;10265879;28;20340;-59
2023/03/31 14:15:28;;;;;;;7.80;2.17;;;;;;;13.37;57.12;97962.66;10265806;28;20054;-60
2023/03/31 14:20:37;;;;;;;9.02;2.03;;;;;;;13.73;56.45;97951.03;10265259;28;20589;-59
2023/03/31 14:25:57;;;;;;;6.05;1.67;;;;;;;13.79;54.13;97960.09;10263191;28;20062;-59
2023/03/31 14:31:25;;;;;;;;;;;;;;;13.84;55.07;97960.41;10266061;28;20066;-59
2023/03/31 14:36:46;;;;;;;8.45;2.20;;;;;;;14.21;54.83;97971.34;10262987;28;19925;-60
2023/03/31 14:41:52;;;;;;;;;;;;;;;13.57;55.87;97972.00;10263083;28;20562;-59
2023/03/31 14:46:56;;;;;;;8.15;2.30;;;;;;;13.63;55.66;97988.94;10262319;28;20548;-60
2023/03/31 14:52:02;;;;;;;10.82;2.35;;;;;;;13.17;58.02;98024.22;10261933;28;20079;-59
2023/03/31 14:57:04;;;;;;;6.65;1.65;;;;;;;12.33;59.35;98002.09;10263003;28;20050;-59
2023/03/31 15:02:15;;;;;;;6.47;1.80;;;;;;;12.09;60.18;98001.78;10261556;28;20066;-59
2023/03/31 15:07:17;;;;;;;8.90;1.80;;;;;;;12.29;59.30;97985.00;10262618;28;20053;-59
2023/03/31 15:12:21;;;;;;;6.75;1.50;;;;;;;12.26;58.95;97979.19;10293273;28;20042;-59
2023/03/31 15:17:27;;;;;;;5.93;1.65;;;;;;;12.24;58.53;97987.19;10261610;28;20039;-59
2023/03/31 15:22:29;;;;;;;8.75;1.73;;;;;;;12.19;57.90;97984.22;10263482;28;20051;-59
2023/03/31 15:27:40;;;;;;;6.55;1.80;;;;;;;12.15;57.67;97993.31;10261992;28;20050;-59
2023/03/31 15:32:42;;;;;;;6.97;1.90;;;;;;;12.23;57.50;98005.72;10261783;28;20073;-59
2023/03/31 15:37:45;;;;;;;5.50;1.67;;;;;;;12.18;57.88;97993.03;10288994;28;20353;-59
2023/03/31 15:42:49;;;;;;;6.82;1.70;;;;;;;12.11;57.03;97997.22;10260528;28;20113;-59
2023/03/31 15:48:17;;;;;;;6.80;1.95;;;;;;;12.05;57.59;97995.19;10257631;28;20053;-59
2023/03/31 15:53:26;;;;;;;6.32;1.58;;;;;;;12.17;56.44;97991.41;10259082;28;20081;-59
2023/03/31 15:58:53;;;;;;;7.47;1.70;;;;;;;12.26;56.78;97981.81;10259515;28;20478;-59
2023/03/31 16:03:55;;;;;;;6.47;1.70;;;;;;;12.29;57.56;97985.00;10288075;28;20138;-59
2023/03/31 16:09:10;;;;;;;6.97;1.80;;;;;;;12.27;56.87;97984.31;10253125;28;20050;-59
2023/03/31 16:14:31;;;;;;;9.80;1.77;;;;;;;12.04;58.37;97981.28;10261789;28;20046;-60
2023/03/31 16:19:54;;;;;;;5.28;1.63;;;;;;;12.11;58.01;97977.06;10264011;28;20234;-59
2023/03/31 16:24:57;;;;;;;5.28;1.58;;;;;;;12.19;58.07;97978.16;10259724;28;20051;-59
2023/03/31 16:30:09;;;;;;;6.85;1.90;;;;;;;12.04;57.86;97980.44;10263924;28;20050;-59
2023/03/31 16:35:11;;;;;;;6.20;1.67;;;;;;;12.12;57.86;97972.66;10265279;28;20042;-59
2023/03/31 16:40:13;;;;;;;7.90;1.70;;;;;;;12.10;57.57;97979.84;10263751;28;20047;-59
2023/03/31 16:45:18;;;;;;;7.75;2.03;;;;;;;12.01;57.67;97981.56;10265385;28;20078;-59
2023/03/31 16:50:19;;;;;;;6.50;2.08;;;;;;;11.96;57.57;97980.38;10266479;28;20065;-59
2023/03/31 16:55:21;;;;;;;8.98;2.00;;;;;;;11.88;57.29;97975.03;10260008;28;20584;-59
2023/03/31 17:00:23;;;;;;;7.78;1.67;;;;;;;11.95;57.01;97976.09;10264807;28;20058;-59
2023/03/31 17:05:25;;;;;;;8.05;1.80;;;;;;;11.88;57.29;97981.09;10261074;28;20054;-60
2023/03/31 17:10:27;;;;;;;9.15;1.90;;;;;;;11.93;57.76;97994.56;10294450;28;20565;-60
2023/03/31 17:15:29;;;;;;;7.07;2.03;;;;;;;11.89;58.19;97993.22;10275827;28;20062;-60
2023/03/31 17:20:31;;;;;;;7.45;2.15;;;;;;;11.85;58.46;97989.25;10269045;28;20051;-59
2023/03/31 17:25:35;;;;;;;7.50;2.08;;;;;;;11.64;58.35;97995.72;10268482;28;20051;-59
2023/03/31 17:30:37;;;;;;;7.13;2.03;;;;;;;11.50;58.99;97990.94;10268333;28;20475;-59
2023/03/31 17:35:41;;;;;;;9.32;3.30;;;;;;;11.52;59.09;98005.53;10266934;28;20039;-59
2023/03/31 17:40:42;;;;;;;9.48;2.80;;;;;;;11.50;58.93;98004.84;10263952;28;20069;-59
2023/03/31 17:45:44;;;;;;;9.00;3.72;;;;;;;11.25;59.43;98014.16;10258747;28;20051;-59
2023/03/31 17:50:46;;;;;;;8.88;3.97;;;;;;;11.36;59.24;98012.34;10268686;28;20145;-59
2023/03/31 17:55:48;;;;;;;8.32;3.40;;;;;;;11.35;59.08;98023.78;10271158;28;20400;-59
2023/03/31 18:00:51;;;;;;;7.97;2.40;;;;;;;11.32;59.17;98011.00;10293177;28;20533;-59
2023/03/31 18:05:52;;;;;;;8.45;2.85;;;;;;;11.24;59.42;98019.53;10268564;28;20133;-59
2023/03/31 18:10:54;;;;;;;7.72;2.58;;;;;;;11.26;58.54;98005.34;10286510;28;20057;-59
2023/03/31 18:15:56;;;;;;;5.97;2.10;;;;;;;11.25;58.18;98024.63;10279888;28;20079;-59
2023/03/31 18:21:02;;;;;;;7.15;2.10;;;;;;;11.26;58.12;98033.31;10268502;28;20042;-59
2023/03/31 18:26:06;;;;;;;5.65;2.47;;;;;;;11.13;57.93;98028.38;10293446;28;20042;-60
2023/03/31 18:31:09;;;;;;;8.50;2.83;;;;;;;11.13;57.98;98023.13;10273211;28;20066;-59
2023/03/31 18:36:16;;;;;;;8.60;3.00;;;;;;;11.20;58.67;98028.63;10282442;28;20046;-59
2023/03/31 18:41:18;;;;;;;9.75;2.08;;;;;;;11.26;57.99;98028.91;10260881;28;20546;-60
2023/03/31 18:46:20;;;;;;;8.50;2.00;;;;;;;11.29;57.87;98031.22;10303777;28;20035;-59
2023/03/31 18:51:22;;;;;;;7.15;2.33;;;;;;;11.38;58.15;98037.41;10269357;28;20140;-59
2023/03/31 18:56:24;;;;;;;8.07;2.13;;;;;;;11.50;58.32;98044.09;10287296;28;20066;-59
2023/03/31 19:01:27;;;;;;;8.35;2.10;;;;;;;11.47;58.63;98044.41;10268037;28;20054;-61
2023/03/31 19:06:29;;;;;;;6.25;2.05;;;;;;;11.39;59.21;98036.44;10265789;28;20054;-61
2023/03/31 19:11:31;;;;;;;10.10;2.20;;;;;;;11.35;58.83;98031.63;10268157;28;20042;-61
2023/03/31 19:16:40;;;;;;;9.52;2.20;;;;;;;11.36;59.34;98033.28;10267910;28;20546;-61
2023/03/31 19:21:42;;;;;;;8.25;2.38;;;;;;;11.41;59.45;98028.44;10270111;28;20153;-61
2023/03/31 19:26:45;;;;;;;9.82;2.92;;;;;;;11.17;59.83;98047.25;10273003;28;20054;-61
2023/03/31 19:31:47;;;;;;;10.98;2.40;;;;;;;11.12;60.59;98050.28;10258682;28;20494;-61
2023/03/31 19:36:49;;;;;;;7.90;2.10;;;;;;;10.89;61.26;98056.72;10265969;28;20822;-61
2023/03/31 19:41:51;;;;;;;12.45;4.15;;;;;;;11.05;61.83;98048.38;10270710;28;20062;-61
2023/03/31 19:46:53;;;;;;;12.77;3.35;;;;;;;11.06;61.63;98050.00;10290101;28;20047;-61
2023/03/31 19:51:55;;;;;;;9.27;2.35;;;;;;;10.97;61.73;98038.56;10273531;28;20063;-61
2023/03/31 19:56:57;;;;;;;8.30;2.28;;;;;;;10.95;62.30;98043.09;10271356;28;20057;-61
2023/03/31 20:02:03;;;;;;;10.82;2.10;;;;;;;10.88;62.41;98036.78;10269599;28;20051;-61
2023/03/31 20:07:05;;;;;;;6.90;2.63;;;;;;;10.92;62.75;98043.41;10266602;28;20047;-61
2023/03/31 20:12:07;;;;;;;10.13;3.28;;;;;;;10.80;63.08;98035.84;10271358;28;20065;-61
2023/03/31 20:17:10;;;;;;;9.25;3.60;;;;;;;10.65;63.12;98038.03;10266445;28;20053;-61
2023/03/31 20:22:12;;;;;;;6.78;2.20;;;;;;;10.63;62.29;98036.50;10295296;28;20042;-61
2023/03/31 20:27:14;;;;;;;8.38;1.90;;;;;;;10.50;62.58;98047.25;10265383;28;20057;-61
2023/03/31 20:32:16;;;;;;;8.13;2.10;;;;;;;10.39;62.54;98047.38;10264756;28;20582;-61
2023/03/31 20:37:18;;;;;;;7.18;2.20;;;;;;;10.44;62.42;98047.78;10267168;28;20133;-61
2023/03/31 20:42:20;;;;;;;7.18;2.30;;;;;;;10.46;62.14;98051.13;10259293;28;20062;-61
2023/03/31 20:47:21;;;;;;;9.57;2.33;;;;;;;10.47;62.03;98048.34;10261646;28;20412;-61
2023/03/31 20:52:23;;;;;;;9.63;2.47;;;;;;;10.50;61.85;98042.03;10273670;28;20053;-61
2023/03/31 20:57:26;;;;;;;7.93;2.20;;;;;;;10.61;61.88;98035.81;10274885;28;20097;-61
2023/03/31 21:02:28;;;;;;;7.57;2.40;;;;;;;10.57;61.49;98039.69;10263444;28;20039;-61
2023/03/31 21:07:30;;;;;;;6.28;1.60;;;;;;;10.49;60.98;98041.22;10262513;28;20050;-61
2023/03/31 21:12:32;;;;;;;8.05;1.90;;;;;;;10.57;60.94;98052.75;10261311;28;20078;-61
2023/03/31 21:17:34;;;;;;;7.10;2.15;;;;;;;10.50;60.30;98053.28;10261854;28;20548;-61
2023/03/31 21:22:36;;;;;;;5.28;1.80;;;;;;;10.49;59.98;98062.13;10258081;28;20042;-61
2023/03/31 21:27:38;;;;;;;6.22;1.52;;;;;;;10.54;59.80;98056.47;10264386;28;20522;-61
2023/03/31 21:32:39;;;;;;;7.97;1.80;;;;;;;10.67;59.82;98045.72;10260975;28;20047;-60
2023/03/31 21:37:41;;;;;;;5.68;1.58;;;;;;;10.63;59.43;98053.03;10260473;28;20777;-60
2023/03/31 21:42:43;;;;;;;8.13;1.95;;;;;;;10.68;59.50;98043.00;10257577;28;20042;-61
2023/03/31 21:47:45;;;;;;;8.63;1.83;;;;;;;10.60;59.74;98037.63;10263188;28;20081;-61
2023/03/31 21:52:46;;;;;;;8.75;1.55;;;;;;;10.54;59.95;98043.41;10258376;28;20042;-60
2023/03/31 21:57:48;;;;;;;9.85;1.88;;;;;;;10.48;59.70;98034.31;10256490;28;20043;-61
2023/03/31 22:02:50;;;;;;;5.55;1.60;;;;;;;10.49;59.83;98037.75;10259449;28;20056;-61
2023/03/31 22:07:59;;;;;;;11.48;1.90;;;;;;;10.52;59.98;98024.44;10257147;28;20047;-61
2023/03/31 22:13:01;;;;;;;8.30;1.90;;;;;;;10.43;60.01;98030.47;10262971;28;20039;-60
2023/03/31 22:18:03;;;;;;;4.95;1.58;;;;;;;10.38;60.24;98043.09;10256540;28;20046;-61
2023/03/31 22:23:05;;;;;;;6.72;1.70;;;;;;;10.39;60.17;98052.59;10255562;28;20397;-61
2023/03/31 22:28:08;;;;;;;6.28;1.60;;;;;;;10.40;59.87;98049.84;10266959;28;20053;-61
2023/03/31 22:33:10;;;;;;;8.07;1.80;;;;;;;10.37;60.15;98044.06;10258438;28;20166;-60
2023/03/31 22:38:12;;;;;;;5.47;1.50;;;;;;;10.26;60.41;98054.63;10254971;28;20053;-60
2023/03/31 22:43:14;;;;;;;9.00;1.90;;;;;;;10.35;60.24;98051.22;10254161;28;20454;-61
2023/03/31 22:48:17;;;;;;;4.97;1.60;;;;;;;10.34;60.13;98054.78;10289671;28;20046;-60
2023/03/31 22:53:18;;;;;;;4.80;1.60;;;;;;;10.28;60.15;98052.72;10255433;28;20831;-60
2023/03/31 22:58:21;;;;;;;7.20;1.80;;;;;;;10.32;59.77;98046.25;10257502;28;20070;-61
2023/03/31 23:03:23;;;;;;;8.07;2.03;;;;;;;10.31;59.87;98045.47;10260772;28;20278;-60
2023/03/31 23:08:26;;;;;;;5.85;1.60;;;;;;;10.39;59.47;98040.38;10253846;28;20046;-61
2023/03/31 23:13:28;;;;;;;5.68;1.75;;;;;;;10.42;59.21;98055.75;10251096;28;20191;-61
2023/03/31 23:18:30;;;;;;;7.20;1.80;;;;;;;10.33;59.26;98034.84;10253638;28;20792;-60
2023/03/31 23:23:32;;;;;;;6.47;1.55;;;;;;;10.33;59.04;98051.38;10262499;28;20046;-60
2023/03/31 23:28:35;;;;;;;7.75;1.50;;;;;;;10.20;59.07;98047.34;10257592;28;20070;-61
2023/03/31 23:33:37;;;;;;;7.03;1.60;;;;;;;10.18;59.23;98039.66;10267912;28;20038;-60
2023/03/31 23:38:39;;;;;;;6.97;1.48;;;;;;;10.21;58.96;98036.78;10260914;28;20503;-60
2023/03/31 23:43:42;;;;;;;8.93;1.90;;;;;;;10.28;58.85;98040.47;10262232;28;20146;-61
2023/03/31 23:48:44;;;;;;;7.78;1.98;;;;;;;10.27;58.69;98045.84;10263610;28;20419;-60